Alsen, ND

11:24 PM CDT on July 23, 2014 (GMT -0500)
Langdon (KD55) Elev 1608 ft | 48.75 °N, 98.39 °W | Change Station

Current weather conditions updated 9 minutes ago

Clear
Clear
57 °F
Feels Like 57 °F
N
8
Wind Variable Wind from ESE

Tomorrow is forecast to be Warmer than today. Late night thunderstorms tomorrow night.

Today
High -- | Low -- °F
--% Chance of Precip.
Yesterday
High -- | Low -- °F
Precip. -- in
5:57 AM 9:23 PM
Waning Crescent, 7% visible
Pressure 30.18 in
Visibility 10.0 miles
Clouds Scattered Clouds 5000 ft
Dew Point 54 °F
Humidity 88%
Rainfall 0.00 in
Snow Depth Not available.
UV 0 out of 12
Pollen 7.00 out of 12
Air Quality Not available.
Flu Activity Not available.
METAR KD55 240415Z AUTO 11007KT 10SM SCT050 14/12 A3018 RMK AO2

More Conditions Fewer Conditions

Pressure 30.18 in
Visibility 10.0 miles
Clouds Scattered Clouds 5000 ft
Dew Point 54 °F
Humidity 88%
Rainfall 0.00 in
Snow Depth Not available.
UV 0 out of 12
Pollen 7.00 out of 12
Air Quality Not available.
Flu Activity Not available.
METAR KD55 240415Z AUTO 11007KT 10SM SCT050 14/12 A3018 RMK AO2

More Conditions Fewer Conditions

10-Day Weather Forecast

Almanac

Astronomy

Jul. 23, 2014 Rise Set
Actual Time 5:57 AM CDT 9:23 PM CDT
Civil Twilight 5:18 AM CDT 10:02 PM CDT
Nautical Twilight 4:26 AM CDT 10:53 PM CDT
Astronomical Twilight 3:17 AM CDT 12:01 AM CDT
Moon 3:19 AM CDT (7/23) 6:51 PM CDT (7/23)
Length of Visible Light 16h 44m
Length of Day
15h 26m
Tomorrow will be 2m 25s shorter.
Waning Crescent, 7% of the Moon is Illuminated
Jul 24
Waning Crescent
Jul 26
New
Aug 3
First Quarter
Aug 10
Full
Aug 17
Last Quarter

Today's Extremes

State Highs State Lows

Community

WunderPhotos

Upload Photos

1,736,897 photos uploaded!

Nearby

Snow Depth

Station Depth Elevation
No new snow has been reported.

Earthquake Activity

City Distance Mag. Time & Date
No recent earthquake activity has been reported nearby.
Minimum magnitude displayed is 2.5.

Coastal Water Temperatures

Place Temperature
No Stations Reporting

Nearby Weather Stations

Station Location Temp. Dew Point Humidity Wind Precip. Elev Updated Type
RAWS HAMPDEN ND, Hampden, ND 60 °F 57 °F 89% ESE  at  6 mph 0.00 in / hr 1582 ft 9:58 PM CDT MADIS
Dresden, ND, Langdon, ND 55.4 °F 53 °F 92% North  at  0.0 mph 0.00 in / hr 1588 ft 11:24 PM CDT Rapid Fire

Show More Stations Show Fewer Stations